createdAt,value
2019-05-19T00:00:40.181Z,14.00
2019-05-19T00:03:11.989Z,14.10
2019-05-19T00:05:43.263Z,14.00
2019-05-19T00:08:14.495Z,14.00
2019-05-19T00:10:45.741Z,14.00
2019-05-19T00:13:16.957Z,14.00
2019-05-19T00:15:48.133Z,14.00
2019-05-19T00:18:19.293Z,14.00
2019-05-19T00:20:50.469Z,13.90
2019-05-19T00:23:21.626Z,13.80
2019-05-19T00:25:52.795Z,13.80
2019-05-19T00:28:24.114Z,13.70
2019-05-19T00:30:55.414Z,13.70
2019-05-19T00:33:26.595Z,13.70
2019-05-19T00:35:57.850Z,13.70
2019-05-19T00:38:29.203Z,13.60
2019-05-19T00:41:00.399Z,13.60
2019-05-19T00:43:31.588Z,13.80
2019-05-19T00:46:03.914Z,13.80
2019-05-19T00:48:36.178Z,13.70
2019-05-19T00:51:07.384Z,13.60
2019-05-19T00:53:38.535Z,13.60
2019-05-19T00:56:09.719Z,13.70
2019-05-19T00:58:40.872Z,13.60
2019-05-19T01:01:12.058Z,13.50
2019-05-19T01:03:43.250Z,13.50
2019-05-19T01:06:14.428Z,13.50
2019-05-19T01:08:45.588Z,13.40
2019-05-19T01:11:16.769Z,13.40
2019-05-19T01:13:47.922Z,13.40
2019-05-19T01:16:19.124Z,13.40
2019-05-19T01:18:50.300Z,13.40
2019-05-19T01:21:21.515Z,13.50
2019-05-19T01:23:52.748Z,13.40
2019-05-19T01:26:23.938Z,13.40
2019-05-19T01:28:55.079Z,13.40
2019-05-19T01:31:26.278Z,13.30
2019-05-19T01:33:57.465Z,13.10
2019-05-19T01:36:28.656Z,13.10
2019-05-19T01:38:59.807Z,13.10
2019-05-19T01:41:31.024Z,13.10
2019-05-19T01:44:02.190Z,13.00
2019-05-19T01:46:33.371Z,12.90
2019-05-19T01:49:04.580Z,12.80
2019-05-19T01:51:35.761Z,12.60
2019-05-19T01:54:06.923Z,12.50
2019-05-19T01:56:38.117Z,12.60
2019-05-19T01:59:09.306Z,12.50
2019-05-19T02:01:40.487Z,12.50
2019-05-19T02:04:11.698Z,12.40
2019-05-19T02:06:42.952Z,12.40
2019-05-19T02:09:14.113Z,12.40
2019-05-19T02:11:45.299Z,12.40
2019-05-19T02:14:16.467Z,12.40
2019-05-19T02:16:47.660Z,12.40
2019-05-19T02:19:18.866Z,12.40
2019-05-19T02:21:50.060Z,12.30
2019-05-19T02:24:21.240Z,12.30
2019-05-19T02:26:52.427Z,12.30
2019-05-19T02:29:24.660Z,12.30
2019-05-19T02:31:55.840Z,12.30
2019-05-19T02:34:27.004Z,12.30
2019-05-19T02:36:58.175Z,12.30
2019-05-19T02:39:29.347Z,12.30
2019-05-19T02:42:01.667Z,12.20
2019-05-19T02:44:32.887Z,12.20
2019-05-19T02:47:04.061Z,12.20
2019-05-19T02:49:35.245Z,12.20
2019-05-19T02:52:06.428Z,12.20
2019-05-19T02:54:37.657Z,12.20
2019-05-19T02:57:08.857Z,12.20
2019-05-19T02:59:40.057Z,12.20
2019-05-19T03:02:13.376Z,12.20
2019-05-19T03:04:44.558Z,12.20
2019-05-19T03:07:15.783Z,12.20
2019-05-19T03:09:46.946Z,12.10
2019-05-19T03:12:18.120Z,12.20
2019-05-19T03:14:49.349Z,12.10
2019-05-19T03:17:20.512Z,12.20
2019-05-19T03:19:51.677Z,12.20
2019-05-19T03:22:22.891Z,12.20
2019-05-19T03:24:54.032Z,12.20
2019-05-19T03:27:25.251Z,12.20
2019-05-19T03:29:58.556Z,12.20
2019-05-19T03:32:48.962Z,12.30
2019-05-19T03:35:20.124Z,12.50
2019-05-19T03:37:51.307Z,12.40
2019-05-19T03:40:22.480Z,12.40
2019-05-19T03:42:53.654Z,12.40
2019-05-19T03:45:24.814Z,12.50
2019-05-19T03:47:56.002Z,12.70
2019-05-19T03:50:28.258Z,13.00
2019-05-19T03:52:59.463Z,13.10
2019-05-19T03:55:30.694Z,13.10
2019-05-19T03:58:01.917Z,13.20
2019-05-19T04:00:33.078Z,13.10
2019-05-19T04:03:04.259Z,12.90
2019-05-19T04:05:35.435Z,12.80
2019-05-19T04:08:06.702Z,12.90
2019-05-19T04:10:37.898Z,13.10
2019-05-19T04:13:09.438Z,13.00
2019-05-19T04:15:40.608Z,12.90
2019-05-19T04:18:11.795Z,12.80
2019-05-19T04:20:42.964Z,12.80
2019-05-19T04:23:14.158Z,12.80
2019-05-19T04:25:45.317Z,12.70
2019-05-19T04:28:16.518Z,12.70
2019-05-19T04:30:47.673Z,12.80
2019-05-19T04:33:18.855Z,12.80
2019-05-19T04:35:50.072Z,12.80
2019-05-19T04:38:21.296Z,12.80
2019-05-19T04:40:52.484Z,12.80
2019-05-19T04:43:23.739Z,12.90
2019-05-19T04:45:55.919Z,13.00
2019-05-19T04:48:27.103Z,13.00
2019-05-19T04:50:58.274Z,13.10
2019-05-19T04:53:29.596Z,13.20
2019-05-19T04:56:00.744Z,13.20
2019-05-19T04:58:31.939Z,13.30
2019-05-19T05:01:03.114Z,13.30
2019-05-19T05:03:34.297Z,13.40
2019-05-19T05:06:05.614Z,13.60
2019-05-19T05:08:36.792Z,13.60
2019-05-19T05:11:07.952Z,13.70
2019-05-19T05:13:39.141Z,13.80
2019-05-19T05:16:10.358Z,14.00
2019-05-19T05:18:41.522Z,14.10
2019-05-19T05:21:12.688Z,14.20
2019-05-19T05:23:43.901Z,14.30
2019-05-19T05:26:15.089Z,14.50
2019-05-19T05:28:46.337Z,14.60
2019-05-19T05:31:17.505Z,14.90
2019-05-19T05:33:48.705Z,14.90
2019-05-19T05:36:19.894Z,15.00
2019-05-19T05:38:51.077Z,15.10
2019-05-19T05:41:22.229Z,15.10
2019-05-19T05:43:53.412Z,15.30
2019-05-19T05:46:24.652Z,15.50
2019-05-19T05:48:55.897Z,15.60
2019-05-19T05:51:28.184Z,15.60
2019-05-19T05:53:59.366Z,15.70
2019-05-19T05:56:30.543Z,15.60
2019-05-19T05:59:01.742Z,15.60
2019-05-19T06:01:32.904Z,15.40
2019-05-19T06:04:04.107Z,15.40
2019-05-19T06:06:35.262Z,15.50
2019-05-19T06:09:07.787Z,15.50
2019-05-19T06:11:38.955Z,15.70
2019-05-19T06:14:10.125Z,15.80
2019-05-19T06:16:41.295Z,16.00
2019-05-19T06:19:12.489Z,16.20
2019-05-19T06:21:43.645Z,16.50
2019-05-19T06:24:14.837Z,16.90
2019-05-19T06:26:46.009Z,17.30
2019-05-19T06:29:17.209Z,17.50
2019-05-19T06:31:48.464Z,17.70
2019-05-19T06:34:19.654Z,18.00
2019-05-19T06:36:50.836Z,18.50
2019-05-19T06:39:22.064Z,19.00
2019-05-19T06:41:53.260Z,19.60
2019-05-19T06:44:24.472Z,19.30
2019-05-19T06:46:55.638Z,19.30
2019-05-19T06:49:28.094Z,19.40
2019-05-19T06:52:00.172Z,19.50
2019-05-19T06:54:31.520Z,19.50
2019-05-19T06:57:02.698Z,19.50
2019-05-19T06:59:34.009Z,20.00
2019-05-19T07:02:05.221Z,19.90
2019-05-19T07:04:36.624Z,19.90
2019-05-19T07:07:08.098Z,20.00
2019-05-19T07:09:39.502Z,20.10
2019-05-19T07:12:10.914Z,20.20
2019-05-19T07:14:42.165Z,20.40
2019-05-19T07:17:13.461Z,20.60
2019-05-19T07:19:44.645Z,20.80
2019-05-19T07:22:15.825Z,21.10
2019-05-19T07:24:47.017Z,21.60
2019-05-19T07:27:18.336Z,21.70
2019-05-19T07:29:49.557Z,22.10
2019-05-19T07:32:20.874Z,22.20
2019-05-19T07:34:52.506Z,22.50
2019-05-19T07:37:23.678Z,22.80
2019-05-19T07:39:54.854Z,23.20
2019-05-19T07:42:26.014Z,23.70
2019-05-19T07:44:57.194Z,24.40
2019-05-19T07:47:28.358Z,24.40
2019-05-19T07:49:59.533Z,24.30
2019-05-19T07:52:30.698Z,24.20
2019-05-19T07:55:01.910Z,24.50
2019-05-19T07:57:33.104Z,24.70
2019-05-19T08:00:04.753Z,25.50
2019-05-19T08:02:36.041Z,26.40
2019-05-19T08:05:08.204Z,26.50
2019-05-19T08:07:39.757Z,26.70
2019-05-19T08:10:10.977Z,26.70
2019-05-19T08:12:42.146Z,26.80
2019-05-19T08:15:13.323Z,26.90
2019-05-19T08:17:44.482Z,26.80
2019-05-19T08:20:15.677Z,26.60
2019-05-19T08:22:47.081Z,26.90
2019-05-19T08:25:18.573Z,27.20
2019-05-19T08:27:49.759Z,27.60
2019-05-19T08:30:20.997Z,29.20
2019-05-19T08:32:52.692Z,30.30
2019-05-19T08:35:23.918Z,31.90
2019-05-19T08:37:55.105Z,33.40
2019-05-19T08:40:26.328Z,34.80
2019-05-19T08:42:57.524Z,35.50
2019-05-19T08:45:28.775Z,35.20
2019-05-19T08:47:59.990Z,35.20
2019-05-19T08:50:31.235Z,35.50
2019-05-19T08:53:02.434Z,35.60
2019-05-19T08:55:33.770Z,35.80
2019-05-19T08:58:05.255Z,35.90
2019-05-19T09:00:38.509Z,35.50
2019-05-19T09:03:09.527Z,34.90
2019-05-19T09:05:40.743Z,34.90
2019-05-19T09:08:11.902Z,34.90
2019-05-19T09:10:43.125Z,34.70
2019-05-19T09:13:14.462Z,34.60
2019-05-19T09:15:45.913Z,34.90
2019-05-19T09:18:17.090Z,34.30
2019-05-19T09:20:48.418Z,33.90
2019-05-19T09:23:19.884Z,33.70
2019-05-19T09:25:51.140Z,33.80
2019-05-19T09:28:22.527Z,34.40
2019-05-19T09:30:53.770Z,34.70
2019-05-19T09:33:25.101Z,35.00
2019-05-19T09:35:56.421Z,35.10
2019-05-19T09:38:28.753Z,34.90
2019-05-19T09:41:00.006Z,34.20
2019-05-19T09:43:31.230Z,32.50
2019-05-19T09:46:02.421Z,30.30
2019-05-19T09:48:33.734Z,29.50
2019-05-19T09:51:04.888Z,30.50
2019-05-19T09:53:36.109Z,31.20
2019-05-19T09:56:07.449Z,31.90
2019-05-19T09:58:38.677Z,32.90
2019-05-19T10:01:09.905Z,33.50
2019-05-19T10:03:41.301Z,33.90
2019-05-19T10:06:12.551Z,33.90
2019-05-19T10:08:49.579Z,33.80
2019-05-19T10:12:11.173Z,32.60
2019-05-19T10:14:42.470Z,31.70
2019-05-19T10:17:14.712Z,31.90
2019-05-19T10:19:45.932Z,31.50
2019-05-19T10:22:17.397Z,29.30
2019-05-19T10:24:59.669Z,29.10
2019-05-19T10:27:21.917Z,30.00
2019-05-19T10:29:55.952Z,30.60
2019-05-19T10:32:28.613Z,31.60
2019-05-19T10:35:01.930Z,31.90
2019-05-19T10:37:33.576Z,32.20
2019-05-19T10:40:06.087Z,32.20
2019-05-19T10:42:37.352Z,32.60
2019-05-19T10:45:09.052Z,32.90
2019-05-19T10:47:40.333Z,31.50
2019-05-19T10:50:15.792Z,30.20
2019-05-19T10:52:48.375Z,30.00
2019-05-19T10:55:20.113Z,29.80
2019-05-19T10:57:53.434Z,29.70
2019-05-19T11:00:24.873Z,29.40
2019-05-19T11:02:56.503Z,29.30
2019-05-19T11:05:33.545Z,29.00
2019-05-19T11:08:09.561Z,29.00
2019-05-19T11:10:42.466Z,28.90
2019-05-19T11:13:13.938Z,28.60
2019-05-19T11:15:45.149Z,27.60
2019-05-19T11:18:16.494Z,26.80
2019-05-19T11:20:47.796Z,27.00
2019-05-19T11:23:19.209Z,27.40
2019-05-19T11:25:51.708Z,27.70
2019-05-19T11:28:23.374Z,27.90
2019-05-19T11:30:54.656Z,28.30
2019-05-19T11:33:25.863Z,28.70
2019-05-19T11:35:57.205Z,29.10
2019-05-19T11:38:28.691Z,29.50
2019-05-19T11:40:59.879Z,29.30
2019-05-19T11:43:31.076Z,29.20
2019-05-19T11:46:02.528Z,29.50
2019-05-19T11:48:33.813Z,29.70
2019-05-19T11:51:05.233Z,29.70
2019-05-19T11:53:36.748Z,30.10
2019-05-19T11:56:11.192Z,30.00
2019-05-19T11:58:41.379Z,30.10
2019-05-19T12:01:13.825Z,30.00
2019-05-19T12:03:45.206Z,29.80
2019-05-19T12:06:16.764Z,29.40
2019-05-19T12:08:48.160Z,28.80
2019-05-19T12:11:19.567Z,28.60
2019-05-19T12:13:50.865Z,28.50
2019-05-19T12:16:22.322Z,28.50
2019-05-19T12:18:57.450Z,28.70
2019-05-19T12:21:27.968Z,28.70
2019-05-19T12:23:59.123Z,28.60
2019-05-19T12:26:30.319Z,28.50
2019-05-19T12:29:01.562Z,28.50
2019-05-19T12:31:33.109Z,28.50
2019-05-19T12:34:04.411Z,28.10
2019-05-19T12:36:36.167Z,27.60
2019-05-19T12:39:08.396Z,27.30
2019-05-19T12:41:40.010Z,27.50
2019-05-19T12:44:11.695Z,27.60
2019-05-19T12:46:52.321Z,27.80
2019-05-19T12:49:23.979Z,27.80
2019-05-19T12:51:55.366Z,27.70
2019-05-19T12:54:26.646Z,27.60
2019-05-19T12:56:58.233Z,27.70
2019-05-19T12:59:29.802Z,27.60
2019-05-19T13:02:02.131Z,27.20
2019-05-19T13:04:33.587Z,26.80
2019-05-19T13:07:04.845Z,26.40
2019-05-19T13:09:36.135Z,25.90
2019-05-19T13:12:07.596Z,25.60
2019-05-19T13:14:38.960Z,25.30
2019-05-19T13:17:10.269Z,25.00
2019-05-19T13:19:41.832Z,25.10
2019-05-19T13:22:13.360Z,25.30
2019-05-19T13:24:44.516Z,25.60
2019-05-19T13:27:16.179Z,25.80
2019-05-19T13:29:48.333Z,25.80
2019-05-19T13:32:19.962Z,25.60
2019-05-19T13:34:51.797Z,25.50
2019-05-19T13:37:23.329Z,25.50
2019-05-19T13:39:55.236Z,25.70
2019-05-19T13:42:26.623Z,25.80
2019-05-19T13:44:57.854Z,25.90
2019-05-19T13:47:29.057Z,26.10
2019-05-19T13:50:00.792Z,26.20
2019-05-19T13:52:32.110Z,26.00
2019-05-19T13:55:03.355Z,26.20
2019-05-19T13:57:34.759Z,26.80
2019-05-19T14:00:06.228Z,27.00
2019-05-19T14:02:39.070Z,27.20
2019-05-19T14:05:10.383Z,27.30
2019-05-19T14:07:42.125Z,26.90
2019-05-19T14:10:13.368Z,26.90
2019-05-19T14:12:44.665Z,26.80
2019-05-19T14:15:15.911Z,26.90
2019-05-19T14:17:48.634Z,27.10
2019-05-19T14:20:20.007Z,27.20
2019-05-19T14:22:51.158Z,27.40
2019-05-19T14:25:22.378Z,27.50
2019-05-19T14:27:53.592Z,27.40
2019-05-19T14:30:24.938Z,27.40
2019-05-19T14:32:57.698Z,27.40
2019-05-19T14:35:29.048Z,27.50
2019-05-19T14:38:00.252Z,27.60
2019-05-19T14:40:31.625Z,27.50
2019-05-19T14:43:04.030Z,27.70
2019-05-19T14:45:35.283Z,27.90
2019-05-19T14:48:06.484Z,28.30
2019-05-19T14:50:37.714Z,28.40
2019-05-19T14:53:08.918Z,28.40
2019-05-19T14:55:40.188Z,28.30
2019-05-19T14:58:11.415Z,28.10
2019-05-19T15:00:42.557Z,28.00
2019-05-19T15:03:13.738Z,27.90
2019-05-19T15:05:44.971Z,27.70
2019-05-19T15:08:16.145Z,27.70
2019-05-19T15:10:47.387Z,28.00
2019-05-19T15:13:19.168Z,28.10
2019-05-19T15:15:50.392Z,28.10
2019-05-19T15:18:21.593Z,28.00
2019-05-19T15:20:52.963Z,27.90
2019-05-19T15:23:24.183Z,27.80
2019-05-19T15:25:55.382Z,28.10
2019-05-19T15:28:26.723Z,28.10
2019-05-19T15:30:57.934Z,28.10
2019-05-19T15:33:37.425Z,27.80
2019-05-19T15:36:02.070Z,27.50
2019-05-19T15:38:33.525Z,27.50
2019-05-19T15:41:05.027Z,27.50
2019-05-19T15:43:36.269Z,27.40
2019-05-19T15:46:08.912Z,27.00
2019-05-19T15:48:40.084Z,26.60
2019-05-19T15:51:11.315Z,25.90
2019-05-19T15:53:42.462Z,25.20
2019-05-19T15:56:13.735Z,24.70
2019-05-19T15:58:45.631Z,24.40
2019-05-19T16:01:16.829Z,24.20
2019-05-19T16:03:48.083Z,24.20
2019-05-19T16:06:19.309Z,24.20
2019-05-19T16:08:50.558Z,24.20
2019-05-19T16:11:21.910Z,24.20
2019-05-19T16:13:55.600Z,24.10
2019-05-19T16:16:26.888Z,24.00
2019-05-19T16:18:58.383Z,23.80
2019-05-19T16:21:29.514Z,23.60
2019-05-19T16:24:01.012Z,23.30
2019-05-19T16:26:32.208Z,23.20
2019-05-19T16:29:03.473Z,22.70
2019-05-19T16:31:36.036Z,22.60
2019-05-19T16:34:07.223Z,22.50
2019-05-19T16:36:38.520Z,22.40
2019-05-19T16:39:10.281Z,22.30
2019-05-19T16:41:41.778Z,22.20
2019-05-19T16:44:12.948Z,22.00
2019-05-19T16:46:44.597Z,21.90
2019-05-19T16:49:15.990Z,22.00
2019-05-19T16:51:47.303Z,22.10
2019-05-19T16:54:24.088Z,22.30
2019-05-19T16:56:55.300Z,22.50
2019-05-19T16:59:26.520Z,22.70
2019-05-19T17:01:57.680Z,22.80
2019-05-19T17:04:29.191Z,22.70
2019-05-19T17:07:02.978Z,22.60
2019-05-19T17:09:33.707Z,22.40
2019-05-19T17:12:06.870Z,22.30
2019-05-19T17:14:37.921Z,22.00
2019-05-19T17:17:10.563Z,21.80
2019-05-19T17:19:43.886Z,21.80
2019-05-19T17:22:15.057Z,21.70
2019-05-19T17:24:46.303Z,21.70
2019-05-19T17:27:17.502Z,21.70
2019-05-19T17:29:48.881Z,21.80
2019-05-19T17:32:20.176Z,21.70
2019-05-19T17:34:51.624Z,21.70
2019-05-19T17:37:24.162Z,21.60
2019-05-19T17:39:56.370Z,21.60
2019-05-19T17:42:28.051Z,21.60
2019-05-19T17:44:59.401Z,21.70
2019-05-19T17:47:30.608Z,21.60
2019-05-19T17:50:02.330Z,21.40
2019-05-19T17:52:33.997Z,21.40
2019-05-19T17:55:05.741Z,21.30
2019-05-19T17:57:37.604Z,21.30
2019-05-19T18:00:10.361Z,21.30
2019-05-19T18:02:41.841Z,21.20
2019-05-19T18:05:13.063Z,21.20
2019-05-19T18:07:44.302Z,21.20
2019-05-19T18:10:15.824Z,21.10
2019-05-19T18:12:47.073Z,21.00
2019-05-19T18:15:18.489Z,20.90
2019-05-19T18:17:49.777Z,20.80
2019-05-19T18:20:24.132Z,20.80
2019-05-19T18:22:56.031Z,20.70
2019-05-19T18:25:27.948Z,20.60
2019-05-19T18:28:00.250Z,20.50
2019-05-19T18:30:31.999Z,20.50
2019-05-19T18:33:04.132Z,20.40
2019-05-19T18:35:39.890Z,20.40
2019-05-19T18:38:11.906Z,20.20
2019-05-19T18:40:43.718Z,20.10
2019-05-19T18:43:15.084Z,20.00
2019-05-19T18:45:46.436Z,19.90
2019-05-19T18:48:18.019Z,19.70
2019-05-19T18:50:49.658Z,19.60
2019-05-19T18:53:21.254Z,19.40
2019-05-19T18:55:52.827Z,19.30
2019-05-19T18:58:24.220Z,19.20
2019-05-19T19:00:55.645Z,19.00
2019-05-19T19:03:27.193Z,19.00
2019-05-19T19:05:58.375Z,18.80
2019-05-19T19:08:29.693Z,18.60
2019-05-19T19:11:01.020Z,18.50
2019-05-19T19:13:32.457Z,18.30
2019-05-19T19:16:03.932Z,18.20
2019-05-19T19:18:35.095Z,18.10
2019-05-19T19:21:06.289Z,17.90
2019-05-19T19:23:37.694Z,17.90
2019-05-19T19:26:08.890Z,17.80
2019-05-19T19:28:40.314Z,17.60
2019-05-19T19:31:11.505Z,17.50
2019-05-19T19:33:42.670Z,17.40
2019-05-19T19:36:13.855Z,17.60
2019-05-19T19:38:45.081Z,17.50
2019-05-19T19:41:16.271Z,17.40
2019-05-19T19:43:47.480Z,17.30
2019-05-19T19:46:19.735Z,17.20
2019-05-19T19:48:50.980Z,17.10
2019-05-19T19:51:22.190Z,17.00
2019-05-19T19:53:53.453Z,17.00
2019-05-19T19:56:26.276Z,16.90
2019-05-19T19:58:57.433Z,16.90
2019-05-19T20:01:28.692Z,16.80
2019-05-19T20:04:00.386Z,16.80
2019-05-19T20:06:33.512Z,16.80
2019-05-19T20:09:05.538Z,16.90
2019-05-19T20:11:36.885Z,16.80
2019-05-19T20:14:08.074Z,16.70
2019-05-19T20:16:39.394Z,16.60
2019-05-19T20:19:10.549Z,16.60
2019-05-19T20:21:41.746Z,16.50
2019-05-19T20:24:12.928Z,16.50
2019-05-19T20:26:44.153Z,16.40
2019-05-19T20:29:15.507Z,16.30
2019-05-19T20:31:46.723Z,16.20
2019-05-19T20:34:17.976Z,16.10
2019-05-19T20:36:49.710Z,16.10
2019-05-19T20:39:20.870Z,16.10
2019-05-19T20:41:52.108Z,16.10
2019-05-19T20:44:23.327Z,16.10
2019-05-19T20:46:54.628Z,16.00
2019-05-19T20:49:25.811Z,16.00
2019-05-19T20:51:57.041Z,16.00
2019-05-19T20:54:29.297Z,16.00
2019-05-19T20:57:00.535Z,15.90
2019-05-19T20:59:32.026Z,15.90
2019-05-19T21:02:03.413Z,15.90
2019-05-19T21:04:34.930Z,15.90
2019-05-19T21:07:07.890Z,15.80
2019-05-19T21:09:40.214Z,15.80
2019-05-19T21:12:11.505Z,15.80
2019-05-19T21:14:45.092Z,15.90
2019-05-19T21:17:16.930Z,15.90
2019-05-19T21:19:50.156Z,16.00
2019-05-19T21:22:21.512Z,16.00
2019-05-19T21:24:52.827Z,16.00
2019-05-19T21:27:24.005Z,16.00
2019-05-19T21:29:55.201Z,15.90
2019-05-19T21:32:26.524Z,16.10
2019-05-19T21:34:57.773Z,16.00
2019-05-19T21:37:29.218Z,15.80
2019-05-19T21:40:00.666Z,15.80
2019-05-19T21:42:31.943Z,15.70
2019-05-19T21:45:03.349Z,15.70
2019-05-19T21:47:34.594Z,15.70
2019-05-19T21:50:07.222Z,15.70
2019-05-19T21:52:41.081Z,15.60
2019-05-19T21:55:12.571Z,15.60
2019-05-19T21:57:43.910Z,15.60
2019-05-19T22:00:15.223Z,15.70
2019-05-19T22:02:48.532Z,15.90
2019-05-19T22:05:19.926Z,15.90
2019-05-19T22:08:04.085Z,15.80
2019-05-19T22:10:35.425Z,16.00
2019-05-19T22:13:07.315Z,16.00
2019-05-19T22:15:38.805Z,16.10
2019-05-19T22:18:10.346Z,15.90
2019-05-19T22:20:41.858Z,15.90
2019-05-19T22:23:13.165Z,15.90
2019-05-19T22:25:44.503Z,15.90
2019-05-19T22:28:16.046Z,16.10
2019-05-19T22:30:47.738Z,16.20
2019-05-19T22:33:19.135Z,16.20
2019-05-19T22:35:50.904Z,16.20
2019-05-19T22:38:23.138Z,16.00
2019-05-19T22:40:56.924Z,16.10
2019-05-19T22:43:28.685Z,16.20
2019-05-19T22:46:00.176Z,16.20
2019-05-19T22:48:31.722Z,16.20
2019-05-19T22:51:03.043Z,16.10
2019-05-19T22:53:34.795Z,16.00
2019-05-19T22:56:06.219Z,15.80
2019-05-19T22:58:37.777Z,15.70
2019-05-19T23:01:09.511Z,15.60
2019-05-19T23:03:40.970Z,15.60
2019-05-19T23:06:12.564Z,15.50
2019-05-19T23:08:45.018Z,15.40
2019-05-19T23:11:17.523Z,15.30
2019-05-19T23:13:49.013Z,15.40
2019-05-19T23:16:20.587Z,15.40
2019-05-19T23:18:52.094Z,15.30
2019-05-19T23:21:24.045Z,15.20
2019-05-19T23:23:55.667Z,15.00
2019-05-19T23:26:28.459Z,14.90
2019-05-19T23:28:59.897Z,14.90
2019-05-19T23:31:31.583Z,14.80
2019-05-19T23:34:03.323Z,14.80
2019-05-19T23:36:35.112Z,14.70
2019-05-19T23:39:07.988Z,14.70
2019-05-19T23:41:39.534Z,14.70
2019-05-19T23:44:11.090Z,14.70
2019-05-19T23:46:43.977Z,14.80
2019-05-19T23:49:15.752Z,14.70
2019-05-19T23:51:47.330Z,14.60
2019-05-19T23:54:18.682Z,14.60
2019-05-19T23:56:50.174Z,14.60
2019-05-19T23:59:22.555Z,14.60
